Time;durP1;ratioP1;P1;durP2;ratioP2;P2;SDS_P1;SDS_P2;PMS_P1;PMS_P2;Temp;Humidity;BMP_temperature;BMP_pressure;BME280_temperature;BME280_humidity;BME280_pressure;Samples;Min_cycle;Max_cycle;Signal;HPM_P1;HPM_P2
2022/12/11 00:00:42;;;;;;;14.38;7.20;;;-0.30;99.90;;;;;;5075259;28;20033;-43
2022/12/11 00:03:08;;;;;;;17.83;8.07;;;-0.30;99.90;;;;;;5098843;28;20044;-45
2022/12/11 00:05:33;;;;;;;16.30;7.72;;;-0.40;99.90;;;;;;5083122;28;20032;-44
2022/12/11 00:07:59;;;;;;;17.13;6.82;;;-0.40;99.90;;;;;;5105656;28;20046;-49
2022/12/11 00:10:25;;;;;;;12.57;6.22;;;-0.30;99.90;;;;;;5078133;28;20431;-48
2022/12/11 00:12:51;;;;;;;16.63;7.15;;;-0.30;99.90;;;;;;5085458;28;20032;-49
2022/12/11 00:15:16;;;;;;;12.98;6.57;;;-0.30;99.90;;;;;;5078175;28;20049;-51
2022/12/11 00:17:42;;;;;;;17.75;7.65;;;-0.30;99.90;;;;;;5096129;28;20653;-47
2022/12/11 00:20:08;;;;;;;14.50;7.00;;;-0.30;99.90;;;;;;5079895;28;20063;-48
2022/12/11 00:22:34;;;;;;;18.98;7.88;;;-0.30;99.90;;;;;;5079465;28;20032;-43
2022/12/11 00:24:59;;;;;;;19.50;8.10;;;-0.30;99.90;;;;;;5096410;28;20515;-46
2022/12/11 00:27:25;;;;;;;19.40;7.88;;;-0.30;99.90;;;;;;5094757;28;20466;-44
2022/12/11 00:29:50;;;;;;;18.08;7.85;;;-0.30;99.90;;;;;;5095308;28;20032;-43
2022/12/11 00:32:16;;;;;;;15.57;7.25;;;-0.30;99.90;;;;;;5101986;28;20040;-48
2022/12/11 00:34:41;;;;;;;17.08;7.40;;;-0.30;99.90;;;;;;5097928;28;20063;-44
2022/12/11 00:37:07;;;;;;;17.90;7.97;;;-0.30;99.90;;;;;;5086178;28;20079;-45
2022/12/11 00:39:32;;;;;;;18.20;7.57;;;-0.30;99.90;;;;;;5106088;28;20050;-46
2022/12/11 00:41:58;;;;;;;17.55;7.38;;;-0.30;99.90;;;;;;5095819;28;20423;-44
2022/12/11 00:44:23;;;;;;;15.02;7.38;;;-0.30;99.90;;;;;;5105854;28;20487;-44
2022/12/11 00:46:49;;;;;;;18.95;8.10;;;-0.30;99.90;;;;;;5084416;28;20044;-45
2022/12/11 00:49:14;;;;;;;21.08;8.25;;;-0.30;99.90;;;;;;5095559;28;20491;-47
2022/12/11 00:51:40;;;;;;;17.98;8.27;;;-0.40;99.90;;;;;;5094367;28;20021;-46
2022/12/11 00:54:05;;;;;;;23.02;8.65;;;-0.40;99.90;;;;;;5097498;28;20047;-44
2022/12/11 00:56:31;;;;;;;20.88;8.75;;;-0.40;99.90;;;;;;5097343;28;20038;-45
2022/12/11 00:58:56;;;;;;;15.90;7.15;;;-0.40;99.90;;;;;;5081371;28;20389;-44
2022/12/11 01:01:24;;;;;;;17.73;7.93;;;-0.50;99.90;;;;;;5090901;28;20047;-45
2022/12/11 01:03:50;;;;;;;16.95;7.75;;;-0.40;99.90;;;;;;5099657;28;20120;-44
2022/12/11 01:06:19;;;;;;;17.95;8.57;;;-0.40;99.90;;;;;;5091650;28;20035;-46
2022/12/11 01:08:45;;;;;;;19.17;8.30;;;-0.40;99.90;;;;;;5085817;28;20048;-46
2022/12/11 01:11:13;;;;;;;22.65;8.70;;;-0.40;99.90;;;;;;5068987;28;20178;-44
2022/12/11 01:13:39;;;;;;;16.00;7.35;;;-0.40;99.90;;;;;;5068679;28;20074;-44
2022/12/11 01:16:08;;;;;;;23.48;10.05;;;-0.40;99.90;;;;;;5068769;28;20025;-49
2022/12/11 01:18:34;;;;;;;19.85;8.20;;;-0.40;99.90;;;;;;5068772;28;20029;-47
2022/12/11 01:21:08;;;;;;;18.73;8.30;;;-0.30;99.90;;;;;;5068233;28;20545;-46
2022/12/11 01:23:34;;;;;;;17.50;7.95;;;-0.40;99.90;;;;;;5068508;28;20033;-49
2022/12/11 01:26:14;;;;;;;22.42;9.35;;;-0.40;99.90;;;;;;5067069;28;20036;-44
2022/12/11 01:28:40;;;;;;;17.10;7.57;;;-0.40;99.90;;;;;;5094825;28;20028;-44
2022/12/11 01:31:15;;;;;;;19.98;7.43;;;-0.40;99.90;;;;;;5084373;28;20032;-44
2022/12/11 01:33:40;;;;;;;21.67;8.52;;;-0.40;99.90;;;;;;5066698;28;20252;-49
2022/12/11 01:36:18;;;;;;;19.88;8.23;;;-0.40;99.90;;;;;;5098547;28;20051;-50
2022/12/11 01:38:45;;;;;;;20.17;8.73;;;-0.30;99.90;;;;;;5074985;28;20032;-46
2022/12/11 01:41:11;;;;;;;20.27;8.40;;;-0.30;99.90;;;;;;5099372;28;20509;-49
2022/12/11 01:44:04;;;;;;;21.60;7.82;;;-0.30;99.90;;;;;;5067179;28;20127;-47
2022/12/11 01:46:32;;;;;;;16.67;8.10;;;-0.30;99.90;;;;;;5097935;28;20029;-45
2022/12/11 01:48:59;;;;;;;15.60;7.65;;;-0.30;99.90;;;;;;5094662;28;20392;-46
2022/12/11 01:51:26;;;;;;;20.23;8.15;;;-0.30;99.90;;;;;;5093616;28;20036;-52
2022/12/11 01:53:59;;;;;;;17.67;8.57;;;-0.30;99.90;;;;;;5099683;27;20145;-50
2022/12/11 01:56:26;;;;;;;21.50;9.23;;;-0.30;99.90;;;;;;5083205;28;20027;-50
2022/12/11 01:58:56;;;;;;;19.90;7.97;;;-0.40;99.90;;;;;;5089843;28;20024;-48
2022/12/11 02:01:31;;;;;;;20.15;10.05;;;-0.40;99.90;;;;;;5109043;28;20028;-48
2022/12/11 02:03:57;;;;;;;21.30;8.60;;;-0.50;99.90;;;;;;5111167;28;20069;-50
2022/12/11 02:06:36;;;;;;;17.25;8.18;;;-0.40;99.90;;;;;;5096706;28;20038;-50
2022/12/11 02:09:05;;;;;;;20.70;9.50;;;-0.50;99.90;;;;;;5090987;28;20496;-50
2022/12/11 02:11:53;;;;;;;24.38;8.70;;;-0.50;99.90;;;;;;5108632;28;20035;-50
2022/12/11 02:15:01;;;;;;;24.05;9.48;;;-0.50;99.90;;;;;;5070450;28;20036;-49
2022/12/11 02:17:35;;;;;;;21.42;8.32;;;-0.50;99.90;;;;;;5040112;28;20043;-47
2022/12/11 02:20:07;;;;;;;19.80;9.00;;;-0.50;99.90;;;;;;5070334;28;20082;-48
2022/12/11 02:22:41;;;;;;;19.58;8.48;;;-0.50;99.90;;;;;;5089863;28;20032;-50
2022/12/11 02:25:27;;;;;;;21.00;8.85;;;-0.40;99.90;;;;;;5109917;28;20054;-44
2022/12/11 02:28:24;;;;;;;20.65;8.20;;;-0.40;99.90;;;;;;5088067;28;20032;-44
2022/12/11 02:30:59;;;;;;;26.90;9.23;;;-0.40;99.90;;;;;;5073836;28;20020;-45
2022/12/11 02:33:41;;;;;;;21.83;8.30;;;-0.40;99.90;;;;;;5093201;28;20028;-44
2022/12/11 02:36:08;;;;;;;17.15;7.32;;;-0.40;99.90;;;;;;5085229;28;20020;-44
2022/12/11 02:38:37;;;;;;;20.98;7.93;;;-0.40;99.90;;;;;;5088924;28;20062;-48
2022/12/11 02:41:06;;;;;;;23.20;8.90;;;-0.40;99.90;;;;;;5108061;28;20028;-45
2022/12/11 02:43:33;;;;;;;19.13;8.80;;;-0.40;99.90;;;;;;5089660;28;20118;-46
2022/12/11 02:46:01;;;;;;;20.83;8.95;;;-0.40;99.90;;;;;;5107657;28;20088;-45
2022/12/11 02:48:27;;;;;;;21.42;8.00;;;-0.40;99.90;;;;;;5089046;28;20028;-47
2022/12/11 02:50:56;;;;;;;19.40;8.38;;;-0.40;99.90;;;;;;5107435;28;20028;-46
2022/12/11 02:53:26;;;;;;;22.60;9.23;;;-0.40;99.90;;;;;;5107607;28;20043;-45
2022/12/11 02:55:58;;;;;;;20.08;8.60;;;-0.40;99.90;;;;;;5088854;28;20028;-45
2022/12/11 02:58:29;;;;;;;22.55;9.75;;;-0.40;99.90;;;;;;5082273;28;20043;-46
2022/12/11 03:00:55;;;;;;;25.48;9.77;;;-0.40;99.90;;;;;;5069196;28;20036;-46
2022/12/11 03:03:21;;;;;;;23.63;8.95;;;-0.40;99.90;;;;;;5091731;28;20047;-45
2022/12/11 03:05:47;;;;;;;23.75;8.57;;;-0.40;99.90;;;;;;5108937;28;20042;-45
2022/12/11 03:08:16;;;;;;;22.23;8.20;;;-0.40;99.90;;;;;;5088114;28;20032;-46
2022/12/11 03:10:41;;;;;;;20.42;9.35;;;-0.40;99.90;;;;;;5109371;28;20031;-45
2022/12/11 03:13:07;;;;;;;18.40;9.20;;;-0.30;99.90;;;;;;5087725;28;20088;-47
2022/12/11 03:15:57;;;;;;;27.65;9.80;;;-0.40;99.90;;;;;;5109013;28;20404;-45
2022/12/11 03:18:51;;;;;;;21.33;8.80;;;-0.40;99.90;;;;;;5082303;28;20123;-44
2022/12/11 03:21:39;;;;;;;18.83;8.20;;;-0.40;99.90;;;;;;5068911;28;20044;-50
2022/12/11 03:24:18;;;;;;;24.27;8.93;;;-0.30;99.90;;;;;;5069088;28;20044;-45
2022/12/11 03:26:53;;;;;;;29.02;9.77;;;-0.30;99.90;;;;;;5069421;28;20032;-47
2022/12/11 03:29:22;;;;;;;19.00;9.00;;;-0.30;99.90;;;;;;5109323;28;20047;-46
2022/12/11 03:31:56;;;;;;;24.52;9.95;;;-0.30;99.90;;;;;;5086984;28;20117;-45
2022/12/11 03:34:28;;;;;;;20.05;8.43;;;-0.30;99.90;;;;;;5088940;28;20070;-45
2022/12/11 03:36:56;;;;;;;19.30;8.57;;;-0.30;99.90;;;;;;5071898;28;20032;-47
2022/12/11 03:39:28;;;;;;;26.83;9.02;;;-0.30;99.90;;;;;;5109282;28;20024;-47
2022/12/11 03:41:55;;;;;;;26.23;8.98;;;-0.30;99.90;;;;;;5074472;28;20053;-45
2022/12/11 03:44:22;;;;;;;32.17;10.13;;;-0.30;99.90;;;;;;5088720;28;20028;-45
2022/12/11 03:46:50;;;;;;;25.02;8.93;;;-0.30;99.90;;;;;;5106743;28;20085;-46
2022/12/11 03:49:19;;;;;;;21.38;9.68;;;-0.30;99.90;;;;;;5109344;28;20476;-46
2022/12/11 03:51:48;;;;;;;22.90;8.05;;;-0.30;99.90;;;;;;5087980;28;20035;-49
2022/12/11 03:54:14;;;;;;;21.20;9.13;;;-0.30;99.90;;;;;;5109049;28;20011;-46
2022/12/11 03:56:41;;;;;;;24.50;10.07;;;-0.30;99.90;;;;;;5087840;28;20051;-46
2022/12/11 03:59:07;;;;;;;22.23;9.27;;;-0.30;99.90;;;;;;5110914;28;20051;-45
2022/12/11 04:01:33;;;;;;;21.90;9.10;;;-0.30;99.90;;;;;;5093311;28;20079;-44
2022/12/11 04:03:59;;;;;;;25.55;9.48;;;-0.30;99.90;;;;;;5109065;28;20585;-42
2022/12/11 04:06:24;;;;;;;21.20;9.18;;;-0.30;99.90;;;;;;5112825;28;20170;-44
2022/12/11 04:08:49;;;;;;;23.88;9.77;;;-0.30;99.90;;;;;;5093251;28;20039;-42
2022/12/11 04:11:33;;;;;;;24.23;10.15;;;-0.30;99.90;;;;;;5110532;28;20387;-41
2022/12/11 04:16:55;;;;;;;17.75;7.57;;;-0.30;99.90;;;;;;5110821;28;20030;-44
2022/12/11 04:24:49;;;;;;;23.48;8.90;;;-0.20;99.90;;;;;;5072225;28;20749;-44
2022/12/11 04:30:03;;;;;;;19.48;8.45;;;-0.20;99.90;;;;;;5072676;28;20420;-42
2022/12/11 04:32:28;;;;;;;27.40;10.85;;;-0.20;99.90;;;;;;5105577;28;20039;-42
2022/12/11 04:34:54;;;;;;;26.70;9.73;;;-0.30;99.90;;;;;;5092978;28;20045;-43
2022/12/11 04:37:19;;;;;;;22.00;9.48;;;-0.30;99.90;;;;;;5109685;28;20020;-42
2022/12/11 04:39:45;;;;;;;25.42;9.05;;;-0.30;99.90;;;;;;5092921;28;20039;-42
2022/12/11 04:42:10;;;;;;;23.23;9.30;;;-0.30;99.90;;;;;;5100557;28;20047;-42
2022/12/11 04:44:36;;;;;;;19.35;9.30;;;-0.30;99.90;;;;;;5111841;28;20063;-43
2022/12/11 04:47:01;;;;;;;22.35;9.60;;;-0.30;99.90;;;;;;5098422;28;20038;-43
2022/12/11 04:49:26;;;;;;;23.08;9.35;;;-0.30;99.90;;;;;;5112336;28;20190;-43
2022/12/11 04:51:52;;;;;;;30.10;11.50;;;-0.30;99.90;;;;;;5097180;28;20034;-46
2022/12/11 04:54:17;;;;;;;18.17;9.48;;;-0.40;99.90;;;;;;5112342;28;20031;-43
2022/12/11 04:56:43;;;;;;;25.73;10.90;;;-0.40;99.90;;;;;;5095700;28;20055;-43
2022/12/11 04:59:08;;;;;;;25.33;10.98;;;-0.40;99.90;;;;;;5112243;28;20034;-44
2022/12/11 05:01:34;;;;;;;23.10;12.98;;;-0.40;99.90;;;;;;5093034;28;20401;-43
2022/12/11 05:03:59;;;;;;;23.52;12.00;;;-0.50;99.90;;;;;;5112103;28;20055;-46
2022/12/11 05:06:25;;;;;;;19.50;10.65;;;-0.70;99.90;;;;;;5092971;28;20031;-43
2022/12/11 05:08:50;;;;;;;22.05;11.02;;;-0.60;99.90;;;;;;5112170;28;20148;-43
2022/12/11 05:11:16;;;;;;;21.23;11.00;;;-0.60;99.90;;;;;;5090589;28;20047;-43
2022/12/11 05:13:42;;;;;;;24.35;11.35;;;-0.70;99.90;;;;;;5112245;27;20103;-43
2022/12/11 05:16:11;;;;;;;23.80;10.98;;;-0.70;99.90;;;;;;5090139;28;20028;-43
2022/12/11 05:18:36;;;;;;;24.30;11.88;;;-0.70;99.90;;;;;;5112101;27;20118;-44
2022/12/11 05:21:05;;;;;;;22.90;12.50;;;-0.80;99.90;;;;;;5092065;28;20111;-43
2022/12/11 05:23:32;;;;;;;25.50;11.52;;;-0.90;99.90;;;;;;5109776;28;20046;-43
2022/12/11 05:26:00;;;;;;;21.90;11.25;;;-1.00;99.90;;;;;;5092010;28;20082;-43
2022/12/11 05:28:28;;;;;;;21.63;11.77;;;-1.10;99.90;;;;;;5090189;28;20476;-43
2022/12/11 05:31:05;;;;;;;24.88;11.73;;;-1.20;99.90;;;;;;5111160;28;20118;-43
2022/12/11 05:33:30;;;;;;;20.60;9.73;;;-1.30;99.90;;;;;;5084655;28;20040;-43
2022/12/11 05:35:56;;;;;;;17.90;9.32;;;-1.30;99.90;;;;;;5110575;28;20096;-43
2022/12/11 05:38:22;;;;;;;19.60;10.55;;;-1.20;99.90;;;;;;5089971;27;20369;-42
2022/12/11 05:41:01;;;;;;;24.60;11.55;;;-1.20;99.90;;;;;;5110809;28;20019;-42
2022/12/11 05:43:29;;;;;;;20.85;11.10;;;-1.20;99.90;;;;;;5089555;28;20517;-44
2022/12/11 05:45:55;;;;;;;20.48;10.05;;;-1.30;99.90;;;;;;5110880;28;20032;-44
2022/12/11 05:48:21;;;;;;;24.42;10.77;;;-1.30;99.90;;;;;;5089585;28;20036;-46
2022/12/11 05:50:57;;;;;;;20.95;11.98;;;-1.30;99.90;;;;;;5110647;28;20035;-47
2022/12/11 05:53:23;;;;;;;22.23;12.15;;;-1.40;99.90;;;;;;5089561;28;20032;-44
2022/12/11 05:55:48;;;;;;;19.20;11.43;;;-1.40;99.90;;;;;;5110356;28;20035;-45
2022/12/11 05:58:14;;;;;;;21.95;10.32;;;-1.40;99.90;;;;;;5089521;28;20031;-44
2022/12/11 06:00:42;;;;;;;20.08;11.05;;;-1.40;99.90;;;;;;5110334;28;20395;-49
2022/12/11 06:03:08;;;;;;;18.85;10.23;;;-1.40;99.90;;;;;;5089213;28;20036;-43
2022/12/11 06:05:38;;;;;;;23.85;11.18;;;-1.30;99.90;;;;;;5110255;28;20590;-44
2022/12/11 06:08:04;;;;;;;20.83;10.68;;;-1.30;99.90;;;;;;5089148;28;20395;-45
2022/12/11 06:10:30;;;;;;;23.13;11.15;;;-1.30;99.90;;;;;;5110090;28;20028;-45
2022/12/11 06:12:55;;;;;;;18.98;9.88;;;-1.30;99.90;;;;;;5089420;28;20059;-45
2022/12/11 06:15:21;;;;;;;19.98;10.52;;;-1.30;99.90;;;;;;5110019;28;20032;-44
2022/12/11 06:17:46;;;;;;;20.90;10.82;;;-1.30;99.90;;;;;;5089391;28;20085;-44
2022/12/11 06:20:12;;;;;;;26.65;11.50;;;-1.40;99.90;;;;;;5109866;28;20027;-45
2022/12/11 06:22:37;;;;;;;23.77;10.55;;;-1.40;99.90;;;;;;5087927;28;20543;-45
2022/12/11 06:25:03;;;;;;;19.58;10.38;;;-1.40;99.90;;;;;;5109942;28;20410;-44
2022/12/11 06:27:29;;;;;;;21.25;10.20;;;-1.30;99.90;;;;;;5088716;28;20040;-46
2022/12/11 06:29:54;;;;;;;24.13;11.68;;;-1.40;99.90;;;;;;5109883;28;20091;-44
2022/12/11 06:32:20;;;;;;;21.30;10.75;;;-1.40;99.90;;;;;;5078861;28;20024;-45
2022/12/11 06:34:46;;;;;;;21.77;10.40;;;-1.40;99.90;;;;;;5072799;28;20031;-45
2022/12/11 06:37:12;;;;;;;20.98;9.68;;;-1.40;99.90;;;;;;5076957;28;20036;-45
2022/12/11 06:39:37;;;;;;;20.65;9.25;;;-1.40;99.90;;;;;;5089395;28;20078;-49
2022/12/11 06:42:03;;;;;;;27.67;12.60;;;-1.40;99.90;;;;;;5093125;28;20047;-44
2022/12/11 06:44:28;;;;;;;23.77;10.57;;;-1.40;99.90;;;;;;5103468;28;20086;-46
2022/12/11 06:46:54;;;;;;;17.52;9.30;;;-1.50;99.90;;;;;;5072138;28;20129;-47
2022/12/11 06:49:19;;;;;;;24.88;11.80;;;-1.40;99.90;;;;;;5106693;28;20027;-44
2022/12/11 06:51:45;;;;;;;22.80;11.65;;;-1.40;99.90;;;;;;5079768;28;20031;-45
2022/12/11 06:54:10;;;;;;;21.73;12.10;;;-1.50;99.90;;;;;;5087307;28;20040;-44
2022/12/11 06:56:36;;;;;;;28.02;13.02;;;-1.50;99.90;;;;;;5104655;28;20056;-44
2022/12/11 06:59:01;;;;;;;26.83;11.88;;;-1.50;99.90;;;;;;5079397;28;20427;-47
2022/12/11 07:01:27;;;;;;;21.95;12.30;;;-1.60;99.90;;;;;;5104215;28;20093;-44
2022/12/11 07:03:54;;;;;;;25.15;10.90;;;-1.60;99.90;;;;;;5087718;28;20107;-46
2022/12/11 07:06:20;;;;;;;22.10;10.75;;;-1.60;99.90;;;;;;5090430;28;20017;-45
2022/12/11 07:08:46;;;;;;;22.63;10.48;;;-1.60;99.90;;;;;;5086258;28;20630;-47
2022/12/11 07:11:14;;;;;;;22.35;11.25;;;-1.60;99.90;;;;;;5104831;28;20466;-45
2022/12/11 07:13:43;;;;;;;23.20;10.20;;;-1.60;99.90;;;;;;5100204;28;20841;-48
2022/12/11 07:16:10;;;;;;;21.95;10.25;;;-1.60;99.90;;;;;;5103186;28;20563;-45
2022/12/11 07:18:41;;;;;;;19.98;9.18;;;-1.60;99.90;;;;;;5106231;27;20051;-45
2022/12/11 07:21:08;;;;;;;18.40;9.55;;;-1.50;99.90;;;;;;5086647;28;20452;-46
2022/12/11 07:23:34;;;;;;;19.83;10.45;;;-1.50;99.90;;;;;;5107307;28;20398;-46
2022/12/11 07:26:09;;;;;;;22.90;11.10;;;-1.50;99.90;;;;;;5090931;28;20380;-45
2022/12/11 07:28:35;;;;;;;21.83;9.73;;;-1.40;99.90;;;;;;5089887;27;20036;-46
2022/12/11 07:31:09;;;;;;;20.70;10.57;;;-1.40;99.90;;;;;;5104581;28;20039;-46
2022/12/11 07:33:35;;;;;;;26.90;11.00;;;-1.40;99.90;;;;;;5099182;28;20092;-47
2022/12/11 07:36:07;;;;;;;23.20;10.05;;;-1.40;99.90;;;;;;5104227;28;20081;-45
2022/12/11 07:38:33;;;;;;;23.35;13.13;;;-1.40;99.90;;;;;;5066712;28;20472;-49
2022/12/11 07:41:03;;;;;;;28.35;12.57;;;-1.40;99.90;;;;;;5098763;28;20072;-45
2022/12/11 07:43:29;;;;;;;23.92;11.70;;;-1.40;99.90;;;;;;5086838;28;20135;-45
2022/12/11 07:46:00;;;;;;;23.20;12.02;;;-1.40;99.90;;;;;;5104380;28;20046;-44
2022/12/11 07:48:26;;;;;;;18.77;10.15;;;-1.40;99.90;;;;;;5073373;28;20120;-44
2022/12/11 07:50:51;;;;;;;21.13;10.25;;;-1.40;99.90;;;;;;5102072;28;20440;-45
2022/12/11 07:53:17;;;;;;;19.33;10.50;;;-1.40;99.90;;;;;;5093225;28;20024;-45
2022/12/11 07:55:42;;;;;;;19.73;9.15;;;-1.40;99.90;;;;;;5090425;28;20038;-44
2022/12/11 07:58:08;;;;;;;28.92;13.23;;;-1.30;99.90;;;;;;5096643;28;20537;-45
2022/12/11 08:00:33;;;;;;;24.17;13.70;;;-1.30;99.90;;;;;;5099134;28;20034;-44
2022/12/11 08:02:58;;;;;;;27.30;13.07;;;-1.20;99.90;;;;;;5106747;28;20058;-45
2022/12/11 08:05:24;;;;;;;22.55;12.15;;;-1.10;99.90;;;;;;5087523;28;20032;-45
2022/12/11 08:07:49;;;;;;;21.10;10.80;;;-1.10;99.90;;;;;;5087997;28;20043;-45
2022/12/11 08:10:15;;;;;;;20.90;9.80;;;-1.10;99.90;;;;;;5103830;28;20084;-47
2022/12/11 08:12:40;;;;;;;22.17;11.32;;;-1.00;99.90;;;;;;5096090;28;20031;-45
2022/12/11 08:15:06;;;;;;;21.60;10.48;;;-1.10;99.90;;;;;;5081155;28;20028;-46
2022/12/11 08:17:32;;;;;;;23.00;10.50;;;-1.10;99.90;;;;;;5106222;28;20024;-47
2022/12/11 08:19:57;;;;;;;20.10;11.48;;;-1.10;99.90;;;;;;5074866;28;20034;-44
2022/12/11 08:22:23;;;;;;;24.67;11.90;;;-1.10;99.90;;;;;;5103754;28;20039;-44
2022/12/11 08:24:48;;;;;;;21.60;11.10;;;-1.20;99.90;;;;;;5080465;28;20490;-46
2022/12/11 08:27:14;;;;;;;20.73;10.82;;;-1.20;99.90;;;;;;5077735;28;20051;-45
2022/12/11 08:29:39;;;;;;;24.38;11.15;;;-1.20;99.90;;;;;;5095474;28;20028;-48
2022/12/11 08:32:05;;;;;;;23.05;10.80;;;-1.20;99.90;;;;;;5073161;28;20079;-45
2022/12/11 08:34:30;;;;;;;22.20;10.95;;;-1.20;99.90;;;;;;5077063;28;20506;-46
2022/12/11 08:36:56;;;;;;;24.85;11.93;;;-1.20;99.90;;;;;;5087482;28;20089;-44
2022/12/11 08:39:21;;;;;;;24.10;12.50;;;-1.20;99.90;;;;;;5105667;28;20480;-46
2022/12/11 08:41:47;;;;;;;22.98;11.25;;;-1.20;99.90;;;;;;5078072;28;20060;-46
2022/12/11 08:44:12;;;;;;;19.27;10.02;;;-1.20;99.90;;;;;;5090566;28;20119;-46
2022/12/11 08:46:38;;;;;;;17.20;10.23;;;-1.20;99.90;;;;;;5092941;28;20028;-49
2022/12/11 08:49:03;;;;;;;20.00;9.90;;;-1.20;99.90;;;;;;5109385;28;20070;-47
2022/12/11 08:51:29;;;;;;;23.17;11.27;;;-1.10;99.90;;;;;;5073169;28;20032;-49
2022/12/11 08:53:57;;;;;;;23.83;11.27;;;-1.10;99.90;;;;;;5100375;28;20036;-46
2022/12/11 08:56:23;;;;;;;21.60;11.23;;;-1.00;99.90;;;;;;5107349;28;20086;-44
2022/12/11 08:58:50;;;;;;;19.92;9.60;;;-0.90;99.90;;;;;;5090136;28;20731;-45
2022/12/11 09:01:21;;;;;;;20.10;9.90;;;-0.80;99.90;;;;;;5107329;28;20147;-44
2022/12/11 09:03:48;;;;;;;18.15;8.95;;;-0.80;99.90;;;;;;5089414;28;20651;-44
2022/12/11 09:06:17;;;;;;;19.30;10.23;;;-0.70;99.90;;;;;;5103323;28;20124;-45
2022/12/11 09:08:45;;;;;;;24.15;11.43;;;-0.70;99.90;;;;;;5098903;28;20039;-49
2022/12/11 09:11:18;;;;;;;34.38;15.80;;;-0.70;99.90;;;;;;5089409;28;20039;-45
2022/12/11 09:13:44;;;;;;;26.08;11.40;;;-0.70;99.90;;;;;;5079678;28;20054;-45
2022/12/11 09:16:16;;;;;;;21.20;11.63;;;-0.70;99.90;;;;;;5091101;28;20021;-45
2022/12/11 09:18:45;;;;;;;20.85;10.90;;;-0.60;99.90;;;;;;5082162;28;20040;-45
2022/12/11 09:21:13;;;;;;;25.10;11.50;;;-0.60;99.90;;;;;;5097868;28;20039;-45
2022/12/11 09:23:40;;;;;;;21.58;11.00;;;-0.50;99.90;;;;;;5103962;28;20048;-44
2022/12/11 09:26:09;;;;;;;21.10;9.75;;;-0.50;99.90;;;;;;5095832;28;20032;-44
2022/12/11 09:28:35;;;;;;;16.48;8.73;;;-0.40;99.90;;;;;;5090877;28;20108;-45
2022/12/11 09:31:06;;;;;;;18.85;9.40;;;-0.30;99.90;;;;;;5110315;28;20506;-45
2022/12/11 09:33:32;;;;;;;18.85;9.77;;;-0.30;99.90;;;;;;5079120;28;20032;-48
2022/12/11 09:36:01;;;;;;;19.27;9.20;;;-0.30;99.90;;;;;;5107841;28;20042;-44
2022/12/11 09:38:27;;;;;;;25.50;10.52;;;-0.30;99.90;;;;;;5091241;27;20036;-44
2022/12/11 09:40:52;;;;;;;20.83;9.30;;;-0.20;99.90;;;;;;5110086;28;20046;-44
2022/12/11 09:43:32;;;;;;;30.25;12.80;;;-0.20;99.90;;;;;;5088986;28;20570;-46
2022/12/11 09:46:01;;;;;;;25.85;11.55;;;-0.20;99.90;;;;;;5089458;28;20032;-47
2022/12/11 09:48:29;;;;;;;25.35;12.13;;;-0.20;99.90;;;;;;5089332;28;20067;-45
2022/12/11 09:50:55;;;;;;;21.88;10.13;;;-0.20;99.90;;;;;;5098765;28;20031;-47
2022/12/11 09:53:28;;;;;;;28.80;12.15;;;-0.20;99.90;;;;;;5093524;28;20081;-44
2022/12/11 09:55:57;;;;;;;24.27;10.63;;;-0.30;99.90;;;;;;5099052;28;20028;-46
2022/12/11 09:58:47;;;;;;;21.65;10.10;;;-0.30;99.90;;;;;;5097237;28;20051;-44
2022/12/11 10:01:37;;;;;;;21.77;10.10;;;-0.20;99.90;;;;;;5097910;28;20022;-48
2022/12/11 10:04:40;;;;;;;21.45;9.75;;;-0.10;99.90;;;;;;5087748;28;20457;-46
2022/12/11 10:07:18;;;;;;;21.48;10.60;;;0.00;99.90;;;;;;5085953;28;20055;-44
2022/12/11 10:09:57;;;;;;;19.42;10.05;;;0.00;99.90;;;;;;5069571;28;20040;-45
2022/12/11 10:12:41;;;;;;;25.40;10.63;;;0.00;99.90;;;;;;5082155;28;20127;-49
2022/12/11 10:15:34;;;;;;;23.98;11.63;;;0.00;99.90;;;;;;5069707;28;20648;-44
2022/12/11 10:18:00;;;;;;;17.92;9.65;;;-0.10;99.90;;;;;;5087228;28;20504;-43
2022/12/11 10:20:38;;;;;;;16.67;9.60;;;0.00;99.90;;;;;;5109228;28;20028;-44
2022/12/11 10:23:06;;;;;;;16.10;10.00;;;0.00;99.90;;;;;;5087678;28;20075;-44
2022/12/11 10:25:38;;;;;;;20.77;9.75;;;0.00;99.90;;;;;;5108978;28;20031;-47
2022/12/11 10:28:15;;;;;;;16.95;8.43;;;0.00;99.90;;;;;;5087518;28;20032;-44
2022/12/11 10:30:53;;;;;;;15.82;8.90;;;0.00;99.90;;;;;;5107343;28;20031;-44
2022/12/11 10:33:33;;;;;;;17.40;8.68;;;0.00;99.90;;;;;;5092997;28;20031;-44
2022/12/11 10:35:58;;;;;;;17.48;8.48;;;0.00;99.90;;;;;;5082399;28;20028;-43
2022/12/11 10:38:46;;;;;;;19.77;9.15;;;0.10;99.90;;;;;;5087097;28;20059;-45
2022/12/11 10:41:17;;;;;;;17.73;9.05;;;0.10;99.90;;;;;;5083413;28;20024;-46
2022/12/11 10:43:45;;;;;;;22.17;8.88;;;0.10;99.90;;;;;;5074022;28;20408;-44
2022/12/11 10:46:19;;;;;;;17.70;8.57;;;0.10;99.90;;;;;;5088070;28;20128;-45
2022/12/11 10:48:54;;;;;;;16.80;7.90;;;0.20;99.90;;;;;;5075304;28;20859;-45
2022/12/11 10:51:31;;;;;;;17.13;8.65;;;0.20;99.90;;;;;;5068205;28;20119;-45
2022/12/11 10:54:14;;;;;;;17.73;9.75;;;0.30;99.90;;;;;;5105782;28;20034;-43
2022/12/11 10:56:40;;;;;;;22.27;9.75;;;0.20;99.90;;;;;;5068673;28;20041;-46
2022/12/11 10:59:06;;;;;;;17.60;8.88;;;0.20;99.90;;;;;;5105773;28;20054;-46
2022/12/11 11:01:32;;;;;;;22.02;10.50;;;0.20;99.90;;;;;;5092051;28;20043;-48
2022/12/11 11:04:05;;;;;;;20.17;9.13;;;0.20;99.90;;;;;;5108879;28;20035;-47
2022/12/11 11:06:31;;;;;;;16.85;8.55;;;0.30;99.90;;;;;;5084333;28;20039;-48
2022/12/11 11:08:58;;;;;;;12.93;7.57;;;0.40;99.90;;;;;;5088357;28;20036;-45
2022/12/11 11:11:35;;;;;;;16.88;6.90;;;0.50;99.90;;;;;;5086871;28;20561;-47
2022/12/11 11:14:17;;;;;;;15.18;7.75;;;0.50;99.90;;;;;;5086141;28;20672;-50
2022/12/11 11:16:51;;;;;;;16.40;9.35;;;0.60;99.90;;;;;;5084552;28;20044;-49
2022/12/11 11:19:31;;;;;;;15.30;8.45;;;0.50;97.80;;;;;;5068177;28;20439;-49
2022/12/11 11:22:01;;;;;;;18.15;8.27;;;0.60;99.90;;;;;;5069419;28;20044;-47
2022/12/11 11:24:38;;;;;;;16.05;8.40;;;0.50;99.90;;;;;;5095534;28;20108;-47
2022/12/11 11:27:26;;;;;;;15.25;7.72;;;0.60;99.90;;;;;;5108520;28;20106;-49
2022/12/11 11:29:59;;;;;;;17.63;8.32;;;0.60;99.90;;;;;;5102802;28;20059;-45
2022/12/11 11:32:33;;;;;;;15.70;8.40;;;0.70;99.90;;;;;;5099889;28;20027;-44
2022/12/11 11:35:10;;;;;;;14.25;7.25;;;0.70;99.90;;;;;;5075119;28;20059;-47
2022/12/11 11:37:37;;;;;;;15.65;8.43;;;0.80;99.90;;;;;;5084494;28;20039;-51
2022/12/11 11:40:18;;;;;;;17.70;10.18;;;0.80;98.60;;;;;;5090760;28;20049;-47
2022/12/11 11:43:16;;;;;;;13.85;7.90;;;0.70;99.80;;;;;;5093988;28;20456;-46
2022/12/11 11:45:56;;;;;;;14.50;8.52;;;0.80;97.50;;;;;;5093428;28;20036;-50
2022/12/11 11:48:46;;;;;;;14.10;8.13;;;0.80;96.80;;;;;;5101596;28;20044;-48
2022/12/11 11:51:17;;;;;;;14.18;7.60;;;0.80;96.90;;;;;;5098176;28;20039;-48
2022/12/11 11:53:47;;;;;;;16.10;7.30;;;0.80;98.50;;;;;;5079902;28;20024;-48
2022/12/11 11:56:28;;;;;;;13.93;7.90;;;0.80;99.50;;;;;;5063702;28;20024;-48
2022/12/11 11:59:01;;;;;;;13.98;7.20;;;0.80;99.50;;;;;;5101586;28;20517;-52
2022/12/11 12:01:28;;;;;;;16.42;8.90;;;0.90;98.90;;;;;;5089422;28;20862;-52
2022/12/11 12:03:55;;;;;;;18.23;9.35;;;0.90;97.60;;;;;;5083438;28;20114;-48
2022/12/11 12:06:30;;;;;;;18.42;8.45;;;0.90;98.40;;;;;;5089746;28;20034;-52
2022/12/11 12:09:08;;;;;;;13.38;7.63;;;0.90;99.20;;;;;;5103862;28;20028;-52
2022/12/11 12:12:03;;;;;;;16.48;9.80;;;0.90;97.60;;;;;;5104434;28;20024;-49
2022/12/11 12:15:01;;;;;;;14.93;7.95;;;0.80;97.70;;;;;;5084203;28;20498;-49
2022/12/11 12:17:52;;;;;;;16.90;8.00;;;0.90;98.00;;;;;;5071375;28;20083;-51
2022/12/11 12:20:17;;;;;;;15.23;7.35;;;0.80;98.20;;;;;;5086848;28;20035;-51
2022/12/11 12:23:14;;;;;;;13.68;8.05;;;0.80;98.60;;;;;;5107825;28;20688;-54
2022/12/11 12:25:47;;;;;;;20.02;9.05;;;0.80;98.60;;;;;;5069287;28;20025;-52
2022/12/11 12:28:25;;;;;;;16.00;8.05;;;0.80;99.10;;;;;;5082038;28;20036;-51
2022/12/11 12:31:10;;;;;;;14.60;7.68;;;0.80;98.90;;;;;;5084048;28;20032;-49
2022/12/11 12:34:00;;;;;;;16.58;7.72;;;0.70;98.80;;;;;;5081266;28;20024;-51
2022/12/11 12:36:26;;;;;;;14.70;6.78;;;0.80;98.40;;;;;;5107282;28;20030;-48
2022/12/11 12:39:27;;;;;;;15.52;8.23;;;0.70;98.30;;;;;;5091962;28;20016;-50
2022/12/11 12:42:39;;;;;;;15.63;7.45;;;0.70;99.50;;;;;;5079013;28;20094;-53
2022/12/11 12:45:22;;;;;;;15.52;7.43;;;0.60;98.20;;;;;;5109255;28;20156;-50
2022/12/11 12:47:48;;;;;;;14.45;7.63;;;0.60;99.90;;;;;;5071100;28;20029;-53
2022/12/11 12:50:21;;;;;;;15.52;7.85;;;0.60;99.90;;;;;;5089869;28;20067;-54
2022/12/11 12:52:50;;;;;;;12.80;6.75;;;0.70;99.90;;;;;;5070669;28;20025;-51
2022/12/11 12:55:17;;;;;;;13.10;7.03;;;0.70;99.90;;;;;;5090761;28;20123;-52
2022/12/11 12:57:50;;;;;;;15.27;7.55;;;0.70;99.90;;;;;;5111236;28;20391;-54
2022/12/11 13:00:28;;;;;;;13.57;7.10;;;0.70;99.90;;;;;;5087943;28;20024;-54
2022/12/11 13:02:57;;;;;;;13.75;7.15;;;0.70;99.90;;;;;;5111024;28;20036;-51